Time;durP1;ratioP1;P1;durP2;ratioP2;P2;SDS_P1;SDS_P2;PMS_P1;PMS_P2;Temp;Humidity;BMP_temperature;BMP_pressure;BME280_temperature;BME280_humidity;BME280_pressure;Samples;Min_cycle;Max_cycle;Signal;HPM_P1;HPM_P2
2022/10/21 00:00:07;;;;;;;;;;;19.50;99.90;19.60;99145.00;;;;344337;28;92569;-92
2022/10/21 00:00:19;;;;;;;;;;;19.50;99.90;19.60;99140.00;;;;347460;28;83366;-92
2022/10/21 00:00:31;;;;;;;;;;;19.50;99.90;19.60;99133.00;;;;344350;28;91939;-92
2022/10/21 00:00:42;;;;;;;;;;;19.50;99.90;19.60;99131.00;;;;344737;28;82608;-92
2022/10/21 00:00:55;;;;;;;;;;;19.50;99.90;19.70;99136.00;;;;347187;28;92368;-92
2022/10/21 00:01:07;;;;;;;;;;;19.50;99.90;19.60;99136.00;;;;346099;28;83550;-92
2022/10/21 00:01:18;;;;;;;;;;;19.40;99.90;19.60;99133.00;;;;345766;28;90865;-92
2022/10/21 00:01:30;;;;;;;;;;;19.50;99.90;19.60;99138.00;;;;346257;28;82523;-92
2022/10/21 00:01:42;;;;;;;;;;;19.50;99.90;19.60;99129.00;;;;344103;28;91443;-92
2022/10/21 00:01:54;;;;;;;;;;;19.50;99.90;19.60;99136.00;;;;346125;28;83467;-92
2022/10/21 00:02:05;;;;;;;;;;;19.50;99.90;19.60;99133.00;;;;344363;28;91884;-92
2022/10/21 00:02:17;;;;;;;;;;;19.40;99.90;19.60;99138.00;;;;344702;28;82522;-92
2022/10/21 00:02:29;;;;;;;;;;;19.40;99.90;19.60;99134.00;;;;344191;28;89557;-93
2022/10/21 00:02:40;;;;;;;;;;;19.40;99.90;19.60;99133.00;;;;344748;28;83435;-92
2022/10/21 00:02:52;;;;;;;;;;;19.40;99.90;19.70;99134.00;;;;343140;28;89084;-92
2022/10/21 00:03:04;;;;;;;;;;;19.40;99.90;19.60;99138.00;;;;344700;28;83373;-92
2022/10/21 00:03:16;;;;;;;;;;;19.40;99.90;19.60;99136.00;;;;344266;28;92290;-92
2022/10/21 00:03:28;;;;;;;;;;;19.40;99.90;19.60;99129.00;;;;346258;28;82447;-91
2022/10/21 00:03:40;;;;;;;;;;;19.40;99.90;19.60;99143.00;;;;344280;28;90973;-92
2022/10/21 00:03:52;;;;;;;;;;;19.40;99.90;19.60;99141.00;;;;343417;28;83435;-92
2022/10/21 00:04:04;;;;;;;;;;;19.40;99.90;19.60;99135.00;;;;345685;28;92368;-92
2022/10/21 00:04:15;;;;;;;;;;;19.40;99.90;19.60;99134.00;;;;346163;28;82544;-92
2022/10/21 00:04:27;;;;;;;;;;;19.40;99.90;19.60;99135.00;;;;344321;28;90041;-91
2022/10/21 00:04:39;;;;;;;;;;;19.40;99.90;19.60;99129.00;;;;344496;28;83459;-92
2022/10/21 00:04:50;;;;;;;;;;;19.40;99.90;19.60;99138.00;;;;344300;28;90311;-92
2022/10/21 00:05:03;;;;;;;;;;;19.40;99.90;19.60;99130.00;;;;344757;28;83565;-92
2022/10/21 00:05:15;;;;;;;;;;;19.50;99.90;19.60;99130.00;;;;345693;28;90579;-92
2022/10/21 00:05:26;;;;;;;;;;;19.40;99.90;19.60;99136.00;;;;346315;28;83277;-92
2022/10/21 00:05:38;;;;;;;;;;;19.40;99.90;19.60;99132.00;;;;343004;28;90384;-92
2022/10/21 00:05:50;;;;;;;;;;;19.40;99.90;19.60;99136.00;;;;346127;28;83508;-92
2022/10/21 00:06:02;;;;;;;;;;;19.40;99.90;19.60;99140.00;;;;345630;28;92483;-91
2022/10/21 00:06:13;;;;;;;;;;;19.40;99.90;19.60;99140.00;;;;347542;28;83450;-91
2022/10/21 00:06:25;;;;;;;;;;;19.40;99.90;19.60;99131.00;;;;342907;28;92084;-91
2022/10/21 00:06:37;;;;;;;;;;;19.40;99.90;19.60;99137.00;;;;346167;28;83451;-92
2022/10/21 00:06:48;;;;;;;;;;;19.40;99.90;19.70;99147.00;;;;344361;28;91043;-92
2022/10/21 00:07:00;;;;;;;;;;;19.40;99.90;19.60;99141.00;;;;344718;28;83400;-91
2022/10/21 00:07:12;;;;;;;;;;;19.40;99.90;19.60;99132.00;;;;345665;28;91383;-93
2022/10/21 00:07:23;;;;;;;;;;;19.40;99.90;19.60;99140.00;;;;347638;28;83417;-92
2022/10/21 00:07:35;;;;;;;;;;;19.40;99.90;19.60;99130.00;;;;344404;28;91155;-92
2022/10/21 00:07:47;;;;;;;;;;;19.40;99.90;19.60;99136.00;;;;344686;28;82655;-92
2022/10/21 00:07:58;;;;;;;;;;;19.40;99.90;19.60;99135.00;;;;345218;28;91471;-92
2022/10/21 00:08:11;;;;;;;;;;;19.40;99.90;19.60;99135.00;;;;344784;28;83440;-91
2022/10/21 00:08:23;;;;;;;;;;;19.40;99.90;19.60;99135.00;;;;342837;28;91611;-91
2022/10/21 00:08:35;;;;;;;;;;;19.40;99.90;19.60;99137.00;;;;345997;28;83519;-92
2022/10/21 00:08:46;;;;;;;;;;;19.40;99.90;19.60;99135.00;;;;344456;28;91321;-92
2022/10/21 00:08:58;;;;;;;;;;;19.40;99.90;19.60;99126.00;;;;344697;28;83369;-92
2022/10/21 00:09:10;;;;;;;;;;;19.40;99.90;19.50;99133.00;;;;345632;28;90386;-93
2022/10/21 00:09:22;;;;;;;;;;;19.40;99.90;19.50;99144.00;;;;343401;28;83489;-92
2022/10/21 00:09:33;;;;;;;;;;;19.40;99.90;19.60;99139.00;;;;343124;28;90613;-92
2022/10/21 00:09:45;;;;;;;;;;;19.40;99.90;19.50;99131.00;;;;344623;28;83485;-92
2022/10/21 00:09:57;;;;;;;;;;;19.40;99.90;19.60;99133.00;;;;345717;28;92083;-93
2022/10/21 00:10:09;;;;;;;;;;;19.40;99.90;19.60;99131.00;;;;343541;28;82493;-92
2022/10/21 00:10:21;;;;;;;;;;;19.40;99.90;19.60;99133.00;;;;347043;28;91119;-92
2022/10/21 00:10:32;;;;;;;;;;;19.40;99.90;19.50;99131.00;;;;344792;28;82567;-93
2022/10/21 00:10:44;;;;;;;;;;;19.40;99.90;19.60;99132.00;;;;344379;28;90868;-92
2022/10/21 00:10:58;;;;;;;;;;;19.40;99.90;19.60;99140.00;;;;347626;28;83345;-92
2022/10/21 00:11:09;;;;;;;;;;;19.40;99.90;19.60;99133.00;;;;344350;28;91466;-92
2022/10/21 00:11:21;;;;;;;;;;;19.40;99.90;19.60;99130.00;;;;345889;28;83443;-93
2022/10/21 00:11:33;;;;;;;;;;;19.40;99.90;19.60;99121.00;;;;347153;28;90504;-92
2022/10/21 00:11:44;;;;;;;;;;;19.40;99.90;19.60;99125.00;;;;344758;28;82524;-92
2022/10/21 00:11:56;;;;;;;;;;;19.40;99.90;19.60;99125.00;;;;345773;28;92131;-92
2022/10/21 00:12:08;;;;;;;;;;;19.40;99.90;19.60;99123.00;;;;346271;28;83361;-92
2022/10/21 00:12:20;;;;;;;;;;;19.40;99.90;19.60;99129.00;;;;345661;28;91198;-92
2022/10/21 00:12:31;;;;;;;;;;;19.40;99.90;19.60;99133.00;;;;344771;28;83609;-92
2022/10/21 00:12:43;;;;;;;;;;;19.40;99.90;19.60;99125.00;;;;345739;28;91634;-92
2022/10/21 00:12:55;;;;;;;;;;;19.40;99.90;19.60;99131.00;;;;346264;28;83384;-93
2022/10/21 00:13:06;;;;;;;;;;;19.40;99.90;19.60;99134.00;;;;345625;28;91637;-92
2022/10/21 00:13:18;;;;;;;;;;;19.40;99.90;19.60;99132.00;;;;344826;28;83222;-93
2022/10/21 00:13:30;;;;;;;;;;;19.40;99.90;19.60;99141.00;;;;343035;28;90451;-92
2022/10/21 00:13:42;;;;;;;;;;;19.40;99.90;19.60;99129.00;;;;344739;28;83484;-93
2022/10/21 00:13:54;;;;;;;;;;;19.40;99.90;19.60;99130.00;;;;344274;28;92838;-92
2022/10/21 00:14:06;;;;;;;;;;;19.40;99.90;19.60;99134.00;;;;344862;28;83463;-93
2022/10/21 00:14:18;;;;;;;;;;;19.40;99.90;19.60;99130.00;;;;342943;28;91432;-92
2022/10/21 00:14:30;;;;;;;;;;;19.40;99.90;19.60;99130.00;;;;349017;27;82457;-93
2022/10/21 00:14:42;;;;;;;;;;;19.40;99.90;19.60;99117.00;;;;345695;28;91949;-92
2022/10/21 00:14:54;;;;;;;;;;;19.40;99.90;19.60;99125.00;;;;341961;28;83473;-93
2022/10/21 00:15:08;;;;;;;;;;;19.40;99.90;19.50;99119.00;;;;345740;28;91486;-92
2022/10/21 00:15:20;;;;;;;;;;;19.40;99.90;19.60;99122.00;;;;344882;28;83284;-92
2022/10/21 00:15:31;;;;;;;;;;;19.40;99.90;19.50;99107.00;;;;345796;28;91328;-92
2022/10/21 00:15:43;;;;;;;;;;;19.40;99.90;19.60;99114.00;;;;346130;28;83523;-92
2022/10/21 00:16:04;;;;;;;;;;;19.40;99.90;19.60;99111.00;;;;344295;28;88974;-92
2022/10/21 00:16:17;;;;;;;;;;;19.40;99.90;19.60;99117.00;;;;346200;28;82553;-93
2022/10/21 00:16:29;;;;;;;;;;;19.40;99.90;19.60;99110.00;;;;345668;28;91118;-92
2022/10/21 00:16:41;;;;;;;;;;;19.40;99.90;19.60;99097.00;;;;346252;28;82586;-92
2022/10/21 00:16:53;;;;;;;;;;;19.40;99.90;19.60;99106.00;;;;345650;28;92099;-93
2022/10/21 00:17:04;;;;;;;;;;;19.40;99.90;19.50;99095.00;;;;343421;28;83370;-91
2022/10/21 00:17:16;;;;;;;;;;;19.40;99.90;19.60;99105.00;;;;344373;28;91386;-92
2022/10/21 00:17:28;;;;;;;;;;;19.40;99.90;19.60;99104.00;;;;347641;28;82527;-92
2022/10/21 00:17:40;;;;;;;;;;;19.40;99.90;19.50;99106.00;;;;344370;28;91524;-93
2022/10/21 00:17:52;;;;;;;;;;;19.40;99.90;19.60;99095.00;;;;344544;28;83595;-92
2022/10/21 00:18:03;;;;;;;;;;;19.40;99.90;19.60;99105.00;;;;348346;27;91310;-90
2022/10/21 00:18:16;;;;;;;;;;;19.40;99.90;19.60;99095.00;;;;346075;28;82470;-92
2022/10/21 00:18:28;;;;;;;;;;;19.40;99.90;19.60;99095.00;;;;345688;28;91744;-92
2022/10/21 00:18:40;;;;;;;;;;;19.40;99.90;19.60;99098.00;;;;346241;28;83419;-92
2022/10/21 00:18:52;;;;;;;;;;;19.40;99.90;19.60;99103.00;;;;345733;28;91334;-92
2022/10/21 00:19:04;;;;;;;;;;;19.40;99.90;19.60;99101.00;;;;347564;28;82538;-92
2022/10/21 00:19:16;;;;;;;;;;;19.40;99.90;19.60;99099.00;;;;342973;28;91477;-92
2022/10/21 00:19:27;;;;;;;;;;;19.40;99.90;19.60;99098.00;;;;344821;28;82485;-92
2022/10/21 00:19:41;;;;;;;;;;;19.40;99.90;19.60;99100.00;;;;343003;28;91885;-92
2022/10/21 00:19:53;;;;;;;;;;;19.40;99.90;19.70;99098.00;;;;343379;28;83414;-93
2022/10/21 00:20:06;;;;;;;;;;;19.40;99.90;19.60;99099.00;;;;342992;28;91458;-92
2022/10/21 00:20:17;;;;;;;;;;;19.40;99.90;19.60;99102.00;;;;344742;28;83386;-92
2022/10/21 00:20:29;;;;;;;;;;;19.40;99.90;19.50;99104.00;;;;344383;28;92099;-92
2022/10/21 00:20:44;;;;;;;;;;;19.40;99.90;19.50;99101.00;;;;343440;28;83388;-92
2022/10/21 00:20:56;;;;;;;;;;;19.40;99.90;19.50;99098.00;;;;343059;28;90601;-92
2022/10/21 00:21:10;;;;;;;;;;;19.40;99.90;19.60;99097.00;;;;344802;28;82533;-92
2022/10/21 00:21:21;;;;;;;;;;;19.40;99.90;19.60;99106.00;;;;344352;28;91185;-92
2022/10/21 00:21:35;;;;;;;;;;;19.40;99.90;19.50;99104.00;;;;346191;28;83452;-93
2022/10/21 00:21:47;;;;;;;;;;;19.40;99.90;19.60;99100.00;;;;347028;28;89465;-92
2022/10/21 00:21:59;;;;;;;;;;;19.40;99.90;19.60;99097.00;;;;346044;28;83455;-92
2022/10/21 00:22:10;;;;;;;;;;;19.40;99.90;19.60;99093.00;;;;344260;28;91277;-92
2022/10/21 00:22:22;;;;;;;;;;;19.40;99.90;19.60;99101.00;;;;346120;28;84036;-93
2022/10/21 00:22:34;;;;;;;;;;;19.40;99.90;19.60;99096.00;;;;345715;28;92429;-92
2022/10/21 00:22:46;;;;;;;;;;;19.40;99.90;19.60;99100.00;;;;343409;28;82539;-92
2022/10/21 00:22:58;;;;;;;;;;;19.40;99.90;19.50;99091.00;;;;345747;28;90118;-92
2022/10/21 00:23:10;;;;;;;;;;;19.40;99.90;19.60;99091.00;;;;346049;28;83533;-92
2022/10/21 00:23:21;;;;;;;;;;;19.40;99.90;19.60;99100.00;;;;344362;28;91643;-92
2022/10/21 00:23:33;;;;;;;;;;;19.40;99.90;19.60;99102.00;;;;344818;28;83530;-92
2022/10/21 00:23:45;;;;;;;;;;;19.40;99.90;19.60;99102.00;;;;347029;28;91556;-92
2022/10/21 00:23:57;;;;;;;;;;;19.40;99.90;19.60;99103.00;;;;344743;28;83364;-91
2022/10/21 00:24:08;;;;;;;;;;;19.40;99.90;19.60;99103.00;;;;344284;28;92647;-93
2022/10/21 00:24:20;;;;;;;;;;;19.40;99.90;19.60;99094.00;;;;343349;28;83433;-91
2022/10/21 00:24:32;;;;;;;;;;;19.40;99.90;19.50;99098.00;;;;345781;28;91910;-92
2022/10/21 00:24:44;;;;;;;;;;;19.40;99.90;19.50;99108.00;;;;348979;27;83406;-92
2022/10/21 00:24:55;;;;;;;;;;;19.40;99.90;19.50;99103.00;;;;347138;28;89936;-91
2022/10/21 00:25:07;;;;;;;;;;;19.40;99.90;19.60;99093.00;;;;347431;28;82572;-92
2022/10/21 00:25:19;;;;;;;;;;;19.40;99.90;19.50;99095.00;;;;342943;28;90395;-91
2022/10/21 00:25:31;;;;;;;;;;;19.40;99.90;19.50;99090.00;;;;346075;28;83419;-91
2022/10/21 00:25:43;;;;;;;;;;;19.40;99.90;19.60;99100.00;;;;347007;28;91698;-92
2022/10/21 00:25:57;;;;;;;;;;;19.40;99.90;19.50;99093.00;;;;347495;28;82541;-92
2022/10/21 00:26:10;;;;;;;;;;;19.40;99.90;19.50;99094.00;;;;347138;28;91245;-91
2022/10/21 00:26:22;;;;;;;;;;;19.40;99.90;19.50;99091.00;;;;346014;28;82545;-91
2022/10/21 00:26:33;;;;;;;;;;;19.30;99.90;19.50;99093.00;;;;345683;28;90652;-91
2022/10/21 00:26:49;;;;;;;;;;;19.40;99.90;19.50;99096.00;;;;347429;28;84016;-91
2022/10/21 00:27:01;;;;;;;;;;;19.30;99.90;19.50;99095.00;;;;345646;28;91959;-90
2022/10/21 00:27:13;;;;;;;;;;;19.30;99.90;19.50;99101.00;;;;344702;28;82607;-91
2022/10/21 00:27:25;;;;;;;;;;;19.30;99.90;19.50;99085.00;;;;345768;28;91549;-91
2022/10/21 00:27:36;;;;;;;;;;;19.30;99.90;19.50;99095.00;;;;347410;28;82482;-91
2022/10/21 00:27:49;;;;;;;;;;;19.30;99.90;19.40;99091.00;;;;344142;28;90467;-91
2022/10/21 00:28:00;;;;;;;;;;;19.30;99.90;19.50;99097.00;;;;344801;28;82567;-91
2022/10/21 00:28:12;;;;;;;;;;;19.30;99.90;19.60;99098.00;;;;344252;28;92429;-91
2022/10/21 00:28:24;;;;;;;;;;;19.30;99.90;19.60;99095.00;;;;347500;28;82499;-92
2022/10/21 00:28:36;;;;;;;;;;;19.30;99.90;19.60;99101.00;;;;347078;28;91287;-91
2022/10/21 00:28:48;;;;;;;;;;;19.30;99.90;19.60;99098.00;;;;346256;28;82473;-91
2022/10/21 00:28:59;;;;;;;;;;;19.30;99.90;19.60;99093.00;;;;345592;28;90279;-91
2022/10/21 00:29:11;;;;;;;;;;;19.30;99.90;19.50;99089.00;;;;346142;28;82517;-91
2022/10/21 00:29:23;;;;;;;;;;;19.30;99.90;19.50;99096.00;;;;344276;28;91457;-91
2022/10/21 00:29:35;;;;;;;;;;;19.30;99.90;19.50;99096.00;;;;344867;28;83267;-91
2022/10/21 00:29:46;;;;;;;;;;;19.30;99.90;19.40;99096.00;;;;345669;28;91275;-91
2022/10/21 00:29:58;;;;;;;;;;;19.30;99.90;19.40;99095.00;;;;346216;28;83376;-91
2022/10/21 00:30:10;;;;;;;;;;;19.30;99.90;19.40;99098.00;;;;345605;28;92780;-90
2022/10/21 00:30:22;;;;;;;;;;;19.30;99.90;19.40;99088.00;;;;343322;28;83424;-91
2022/10/21 00:30:34;;;;;;;;;;;19.30;99.90;19.50;99092.00;;;;345687;28;91744;-91
2022/10/21 00:30:46;;;;;;;;;;;19.30;99.90;19.40;99088.00;;;;342072;28;82581;-91
2022/10/21 00:30:58;;;;;;;;;;;19.30;99.90;19.50;99093.00;;;;344295;28;91481;-91
2022/10/21 00:31:11;;;;;;;;;;;19.30;99.90;19.40;99098.00;;;;344710;28;83485;-91
2022/10/21 00:31:23;;;;;;;;;;;19.30;99.90;19.40;99094.00;;;;345763;28;91347;-91
2022/10/21 00:31:34;;;;;;;;;;;19.30;99.90;19.50;99094.00;;;;344545;28;82536;-91
2022/10/21 00:31:46;;;;;;;;;;;19.30;99.90;19.60;99094.00;;;;344343;28;91937;-92
2022/10/21 00:31:58;;;;;;;;;;;19.30;99.90;19.50;99092.00;;;;347367;28;82662;-92
2022/10/21 00:32:09;;;;;;;;;;;19.30;99.90;19.60;99087.00;;;;345736;28;91661;-91
2022/10/21 00:32:21;;;;;;;;;;;19.30;99.90;19.50;99096.00;;;;347408;28;82550;-91
2022/10/21 00:32:33;;;;;;;;;;;19.30;99.90;19.60;99088.00;;;;345701;28;91592;-91
2022/10/21 00:32:45;;;;;;;;;;;19.30;99.90;19.60;99081.00;;;;344743;28;83435;-91
2022/10/21 00:32:57;;;;;;;;;;;19.30;99.90;19.50;99089.00;;;;345702;28;90169;-90
2022/10/21 00:33:13;;;;;;;;;;;19.30;99.90;19.60;99092.00;;;;343438;28;83416;-91
2022/10/21 00:33:26;;;;;;;;;;;19.30;99.90;19.60;99092.00;;;;345781;28;92280;-91
2022/10/21 00:33:38;;;;;;;;;;;19.30;99.90;19.50;99095.00;;;;344519;28;83447;-91
2022/10/21 00:33:50;;;;;;;;;;;19.30;99.90;19.50;99087.00;;;;345575;28;92116;-91
2022/10/21 00:34:01;;;;;;;;;;;19.30;99.90;19.50;99088.00;;;;343400;28;83409;-91
2022/10/21 00:34:13;;;;;;;;;;;19.30;99.90;19.40;99090.00;;;;344301;28;91239;-91
2022/10/21 00:34:25;;;;;;;;;;;19.30;99.90;19.50;99089.00;;;;344713;28;83501;-90
2022/10/21 00:34:42;;;;;;;;;;;19.30;99.90;19.40;99096.00;;;;345707;28;91846;-91
2022/10/21 00:34:53;;;;;;;;;;;19.30;99.90;19.40;99095.00;;;;346139;28;82506;-91
2022/10/21 00:35:05;;;;;;;;;;;19.30;99.90;19.40;99090.00;;;;345622;28;90223;-91
2022/10/21 00:35:17;;;;;;;;;;;19.30;99.90;19.50;99091.00;;;;344784;28;83397;-91
2022/10/21 00:35:32;;;;;;;;;;;19.30;99.90;19.50;99092.00;;;;344420;28;90517;-91
2022/10/21 00:35:52;;;;;;;;;;;19.30;99.90;19.50;99092.00;;;;346127;28;83491;-91
2022/10/21 00:36:06;;;;;;;;;;;19.30;99.90;19.50;99089.00;;;;343040;28;90959;-91
2022/10/21 00:36:18;;;;;;;;;;;19.30;99.90;19.60;99093.00;;;;344599;28;82515;-91
2022/10/21 00:36:30;;;;;;;;;;;19.30;99.90;19.50;99101.00;;;;342822;28;92851;-90
2022/10/21 00:36:42;;;;;;;;;;;19.30;99.90;19.50;99092.00;;;;343420;28;82478;-91
2022/10/21 00:36:54;;;;;;;;;;;19.30;99.90;19.50;99101.00;;;;344387;28;91486;-91
2022/10/21 00:37:05;;;;;;;;;;;19.30;99.90;19.50;99097.00;;;;345936;28;82592;-90
2022/10/21 00:37:17;;;;;;;;;;;19.30;99.90;19.50;99097.00;;;;344328;28;91427;-91
2022/10/21 00:37:30;;;;;;;;;;;19.30;99.90;19.60;99100.00;;;;343431;28;83478;-91
2022/10/21 00:37:41;;;;;;;;;;;19.30;99.90;19.60;99097.00;;;;344292;28;91546;-91
2022/10/21 00:37:53;;;;;;;;;;;19.30;99.90;19.60;99101.00;;;;346214;28;83527;-92
2022/10/21 00:38:05;;;;;;;;;;;19.30;99.90;19.50;99094.00;;;;342928;28;91544;-91
2022/10/21 00:38:17;;;;;;;;;;;19.30;99.90;19.50;99096.00;;;;342027;28;83492;-91
2022/10/21 00:38:30;;;;;;;;;;;19.30;99.90;19.50;99098.00;;;;345696;28;91858;-92
2022/10/21 00:38:43;;;;;;;;;;;19.30;99.90;19.50;99094.00;;;;344790;28;83463;-92
2022/10/21 00:38:55;;;;;;;;;;;19.30;99.90;19.40;99096.00;;;;344186;28;91525;-91
2022/10/21 00:39:07;;;;;;;;;;;19.30;99.90;19.40;99098.00;;;;346082;28;83508;-92
2022/10/21 00:39:18;;;;;;;;;;;19.30;99.90;19.50;99097.00;;;;343017;28;90154;-92
2022/10/21 00:39:30;;;;;;;;;;;19.30;99.90;19.40;99095.00;;;;344940;28;83375;-91
2022/10/21 00:39:42;;;;;;;;;;;19.30;99.90;19.30;99087.00;;;;344292;28;91332;-92
2022/10/21 00:39:54;;;;;;;;;;;19.30;99.90;19.30;99091.00;;;;344870;28;82486;-93
2022/10/21 00:40:06;;;;;;;;;;;19.30;99.90;19.30;99087.00;;;;345786;28;91492;-93
2022/10/21 00:40:18;;;;;;;;;;;19.20;99.90;19.40;99093.00;;;;344662;28;83500;-92
2022/10/21 00:40:30;;;;;;;;;;;19.20;99.90;19.40;99093.00;;;;344299;28;91529;-92
2022/10/21 00:40:41;;;;;;;;;;;19.20;99.90;19.40;99094.00;;;;346268;28;83417;-92
2022/10/21 00:40:53;;;;;;;;;;;19.20;99.90;19.40;99093.00;;;;344343;28;91428;-92
2022/10/21 00:41:05;;;;;;;;;;;19.20;99.90;19.40;99094.00;;;;348891;27;83445;-93
2022/10/21 00:41:17;;;;;;;;;;;19.20;99.90;19.40;99101.00;;;;344265;28;92049;-92
2022/10/21 00:41:29;;;;;;;;;;;19.20;99.90;19.40;99089.00;;;;343443;28;83535;-92
2022/10/21 00:41:41;;;;;;;;;;;19.20;99.90;19.40;99090.00;;;;345753;28;90732;-92
2022/10/21 00:41:53;;;;;;;;;;;19.30;99.90;19.40;99087.00;;;;346117;28;82503;-93
2022/10/21 00:42:05;;;;;;;;;;;19.20;99.90;19.40;99087.00;;;;343054;28;88869;-93
2022/10/21 00:42:19;;;;;;;;;;;19.20;99.90;19.30;99088.00;;;;343354;28;83581;-92
2022/10/21 00:42:34;;;;;;;;;;;19.20;99.90;19.30;99087.00;;;;347023;28;92147;-92
2022/10/21 00:42:46;;;;;;;;;;;19.20;99.90;19.40;99090.00;;;;344787;28;82549;-92
2022/10/21 00:42:58;;;;;;;;;;;19.20;99.90;19.40;99092.00;;;;345520;28;92021;-92
2022/10/21 00:43:10;;;;;;;;;;;19.20;99.90;19.40;99090.00;;;;344654;28;83395;-92
2022/10/21 00:43:23;;;;;;;;;;;19.20;99.90;19.30;99081.00;;;;344313;28;91191;-93
2022/10/21 00:43:53;;;;;;;;;;;19.20;99.90;19.40;99096.00;;;;343458;28;83568;-92
2022/10/21 00:44:07;;;;;;;;;;;19.20;99.90;19.40;99086.00;;;;344353;28;91641;-91
2022/10/21 00:44:19;;;;;;;;;;;19.20;99.90;19.30;99080.00;;;;344724;28;83661;-92
2022/10/21 00:44:31;;;;;;;;;;;19.20;99.90;19.30;99083.00;;;;344401;28;90315;-92
2022/10/21 00:44:43;;;;;;;;;;;19.20;99.90;19.30;99089.00;;;;344782;28;83408;-92
2022/10/21 00:45:03;;;;;;;;;;;19.20;99.90;19.40;99083.00;;;;345391;28;92388;-91
2022/10/21 00:45:17;;;;;;;;;;;19.20;99.90;19.30;99078.00;;;;344710;28;82508;-92
2022/10/21 00:45:29;;;;;;;;;;;19.20;99.90;19.40;99083.00;;;;344523;28;90294;-92
2022/10/21 00:45:41;;;;;;;;;;;19.20;99.90;19.30;99081.00;;;;343295;28;83374;-92
2022/10/21 00:45:55;;;;;;;;;;;19.20;99.90;19.40;99074.00;;;;344220;28;91466;-92
2022/10/21 00:46:08;;;;;;;;;;;19.20;99.90;19.40;99078.00;;;;344705;28;83478;-91
2022/10/21 00:46:30;;;;;;;;;;;19.20;99.90;19.40;99071.00;;;;345651;28;91503;-92
2022/10/21 00:46:49;;;;;;;;;;;19.20;99.90;19.40;99077.00;;;;344730;28;83411;-92
2022/10/21 00:47:03;;;;;;;;;;;19.20;99.90;19.40;99079.00;;;;347057;28;91250;-92
2022/10/21 00:47:16;;;;;;;;;;;19.20;99.90;19.40;99082.00;;;;344649;28;82494;-92
2022/10/21 00:47:28;;;;;;;;;;;19.20;99.90;19.50;99080.00;;;;345487;28;92607;-92
2022/10/21 00:47:46;;;;;;;;;;;19.10;99.90;19.40;99075.00;;;;342024;28;82510;-92
2022/10/21 00:48:08;;;;;;;;;;;19.20;99.90;19.30;99073.00;;;;344352;28;90544;-90
2022/10/21 00:48:31;;;;;;;;;;;19.20;99.90;19.40;99080.00;;;;344700;28;83547;-92
2022/10/21 00:48:44;;;;;;;;;;;19.20;99.90;19.40;99079.00;;;;347163;28;89181;-92
2022/10/21 00:48:56;;;;;;;;;;;19.20;99.90;19.40;99078.00;;;;346163;28;83486;-91
2022/10/21 00:49:16;;;;;;;;;;;19.20;99.90;19.50;99083.00;;;;345658;28;91596;-92
2022/10/21 00:49:47;;;;;;;;;;;19.20;99.90;19.50;99079.00;;;;344829;28;83323;-92
2022/10/21 00:50:00;;;;;;;;;;;19.20;99.90;19.50;99076.00;;;;344041;28;91507;-92
2022/10/21 00:50:31;;;;;;;;;;;19.20;99.90;19.40;99077.00;;;;343382;28;83382;-92
2022/10/21 00:50:50;;;;;;;;;;;19.20;99.90;19.50;99079.00;;;;345599;28;91466;-92
2022/10/21 00:51:10;;;;;;;;;;;19.20;99.90;19.40;99087.00;;;;346077;28;82478;-92
2022/10/21 00:51:21;;;;;;;;;;;19.20;99.90;19.30;99080.00;;;;345814;28;90564;-92
2022/10/21 00:51:33;;;;;;;;;;;19.20;99.90;19.30;99077.00;;;;346103;28;83443;-92
2022/10/21 00:51:46;;;;;;;;;;;19.20;99.90;19.30;99074.00;;;;347059;28;90546;-91
2022/10/21 00:51:58;;;;;;;;;;;19.20;99.90;19.40;99076.00;;;;344714;28;83529;-92
2022/10/21 00:52:12;;;;;;;;;;;19.20;99.90;19.30;99078.00;;;;347063;28;91671;-92
2022/10/21 00:52:24;;;;;;;;;;;19.10;99.90;19.30;99081.00;;;;345950;28;83653;-92
2022/10/21 00:52:35;;;;;;;;;;;19.10;99.90;19.30;99076.00;;;;344356;28;90477;-92
2022/10/21 00:52:48;;;;;;;;;;;19.10;99.90;19.40;99075.00;;;;346148;28;83460;-91
2022/10/21 00:52:59;;;;;;;;;;;19.10;99.90;19.40;99075.00;;;;348392;27;91748;-92
2022/10/21 00:53:12;;;;;;;;;;;19.10;99.90;19.30;99075.00;;;;346139;28;83419;-92
2022/10/21 00:53:24;;;;;;;;;;;19.20;99.90;19.30;99081.00;;;;345642;28;91662;-92
2022/10/21 00:53:38;;;;;;;;;;;19.10;99.90;19.30;99073.00;;;;345908;28;83301;-92
2022/10/21 00:53:49;;;;;;;;;;;19.20;99.90;19.40;99076.00;;;;344381;28;90558;-92
2022/10/21 00:54:01;;;;;;;;;;;19.20;99.90;19.30;99071.00;;;;346013;28;82533;-92
2022/10/21 00:54:13;;;;;;;;;;;19.10;99.90;19.30;99070.00;;;;344368;28;90899;-92
2022/10/21 00:54:25;;;;;;;;;;;19.20;99.90;19.40;99077.00;;;;346081;28;82501;-92
2022/10/21 00:54:37;;;;;;;;;;;19.10;99.90;19.50;99079.00;;;;344429;28;91519;-92
2022/10/21 00:54:49;;;;;;;;;;;19.10;99.90;19.40;99079.00;;;;344823;28;83416;-92
2022/10/21 00:55:02;;;;;;;;;;;19.10;99.90;19.50;99079.00;;;;345558;28;92345;-92
2022/10/21 00:55:14;;;;;;;;;;;19.20;99.90;19.50;99078.00;;;;346110;28;83408;-92
2022/10/21 00:55:28;;;;;;;;;;;19.20;99.90;19.50;99081.00;;;;344250;28;91351;-92
2022/10/21 00:55:48;;;;;;;;;;;19.20;99.90;19.40;99079.00;;;;346092;28;83411;-92
2022/10/21 00:56:04;;;;;;;;;;;19.20;99.90;19.40;99087.00;;;;344285;28;91906;-92
2022/10/21 00:56:23;;;;;;;;;;;19.20;99.90;19.50;99082.00;;;;345954;28;82545;-92
2022/10/21 00:56:35;;;;;;;;;;;19.20;99.90;19.40;99077.00;;;;343998;28;91814;-92
2022/10/21 00:56:46;;;;;;;;;;;19.20;99.90;19.30;99079.00;;;;346194;28;83353;-92
2022/10/21 00:56:58;;;;;;;;;;;19.20;99.90;19.40;99078.00;;;;345623;28;91699;-92
2022/10/21 00:57:10;;;;;;;;;;;19.20;99.90;19.30;99075.00;;;;344630;28;82529;-92
2022/10/21 00:57:23;;;;;;;;;;;19.20;99.90;19.30;99075.00;;;;342855;28;92554;-92
2022/10/21 00:57:35;;;;;;;;;;;19.20;99.90;19.40;99082.00;;;;344765;28;83413;-92
2022/10/21 00:57:47;;;;;;;;;;;19.20;99.90;19.40;99077.00;;;;344245;28;91963;-92
2022/10/21 00:57:59;;;;;;;;;;;19.20;99.90;19.40;99076.00;;;;344699;28;83434;-92
2022/10/21 00:58:11;;;;;;;;;;;19.20;99.90;19.40;99071.00;;;;345671;28;91661;-91
2022/10/21 00:58:24;;;;;;;;;;;19.20;99.90;19.40;99079.00;;;;344726;28;82504;-92
2022/10/21 00:58:36;;;;;;;;;;;19.20;99.90;19.40;99077.00;;;;342921;28;91086;-92
2022/10/21 00:58:47;;;;;;;;;;;19.20;99.90;19.40;99079.00;;;;344837;28;83362;-92
2022/10/21 00:58:59;;;;;;;;;;;19.20;99.90;19.40;99069.00;;;;344210;28;91415;-92
2022/10/21 00:59:11;;;;;;;;;;;19.20;99.90;19.30;99072.00;;;;344787;28;82531;-93
2022/10/21 00:59:24;;;;;;;;;;;19.20;99.90;19.30;99075.00;;;;346622;28;92750;-92
2022/10/21 00:59:38;;;;;;;;;;;19.20;99.90;19.30;99079.00;;;;344758;28;83342;-92
2022/10/21 00:59:52;;;;;;;;;;;19.10;99.90;19.40;99078.00;;;;345713;28;90550;-92
2022/10/21 01:00:06;;;;;;;;;;;19.10;99.90;19.40;99071.00;;;;343468;28;83529;-92
2022/10/21 01:00:18;;;;;;;;;;;19.10;99.90;19.40;99067.00;;;;345560;28;91194;-92
2022/10/21 01:00:29;;;;;;;;;;;19.10;99.90;19.40;99066.00;;;;346096;28;83444;-92
2022/10/21 01:00:41;;;;;;;;;;;19.10;99.90;19.40;99065.00;;;;342965;28;91332;-92
2022/10/21 01:00:57;;;;;;;;;;;19.10;99.90;19.40;99076.00;;;;343423;28;83331;-92
2022/10/21 01:01:09;;;;;;;;;;;19.10;99.90;19.40;99063.00;;;;345353;28;90756;-92
2022/10/21 01:01:21;;;;;;;;;;;19.10;99.90;19.40;99067.00;;;;346068;28;83351;-92
2022/10/21 01:01:32;;;;;;;;;;;19.20;99.90;19.30;99063.00;;;;347069;28;91336;-92
2022/10/21 01:01:44;;;;;;;;;;;19.20;99.90;19.20;99062.00;;;;343425;28;82303;-92
2022/10/21 01:01:56;;;;;;;;;;;19.10;99.90;19.30;99072.00;;;;344389;28;91363;-92
2022/10/21 01:02:08;;;;;;;;;;;19.10;99.90;19.30;99065.00;;;;348700;27;83580;-92
2022/10/21 01:02:19;;;;;;;;;;;19.10;99.90;19.30;99069.00;;;;345281;28;88731;-92
2022/10/21 01:02:31;;;;;;;;;;;19.10;99.90;19.40;99069.00;;;;347215;28;83556;-91
2022/10/21 01:02:43;;;;;;;;;;;19.20;99.90;19.40;99066.00;;;;345439;28;91496;-92